Have a Safe July 4th! 

Flight Track Log - Related Links

Times and Time Zones

All times are in EDT time to prevent confusion due to time zone crossing. See the XA-ASH flight status page for this flight to view local times or setup timezone preferences in your user account.

Time Position Orientation Groundspeed Altitude Reporting Facility
EDT Latitude Longitude Course Direction KTS MPH feet Rate Location/Type
Sun 01:35:47 PM 25.8950 -97.4136 194° South 173 199 800  Level Houston Center
Sun 01:36:30 PM 25.8622 -97.4228 194° South 210 242 3,100 3,185 Climbing Houston Center
Sun 01:37:08 PM 25.8697 -97.4633 282° West 234 269 5,100 3,000 Climbing Houston Center
Sun 01:37:30 PM 25.8825 -97.4922 296° West 246 283 6,100 2,710 Climbing Houston Center
Sun 01:38:10 PM 25.9056 -97.5422 297° West 262 302 7,900 2,647 Climbing Houston Center
Sun 01:39:12 PM 25.9122 -97.6286 275° West 280 322 10,600 2,613 Climbing Houston Center
Sun 01:40:14 PM 25.9089 -97.7269 268° West 293 337 13,300 2,516 Climbing Houston Center
Sun 01:41:16 PM 25.9017 -97.8189 265° West 297 342 15,800 2,129 Climbing Houston Center
Sun 01:42:18 PM 25.8964 -97.9197 267° West 302 348 17,700 968 Climbing Houston Center
Sun 01:43:20 PM 25.8906 -98.0225 266° West 329 379 17,800 48 Climbing Houston Center
Sun 01:44:23 PM 25.8842 -98.1303 266° West 347 399 17,800  Level Houston Center
Sun 01:45:25 PM 25.8792 -98.2472 267° West 351 404 17,800  Level Houston Center
Sun 01:46:27 PM 25.8739 -98.3572 267° West 357 411 17,800  Level Houston Center
Sun 01:47:29 PM 25.8681 -98.4750 267° West 356 410 17,800  Level Houston Center
Sun 01:48:31 PM 25.8606 -98.5844 266° West 356 410 17,800  Level Houston Center
Sun 01:49:33 PM 25.8544 -98.7031 267° West 356 410 17,800  Level Houston Center
Sun 01:50:35 PM 25.8511 -98.7931 268° West 355 409 17,800  Level Houston Center
Sun 01:51:37 PM 25.8439 -98.9269 267° West 358 412 17,800  Level Houston Center
Sun 01:52:39 PM 25.8378 -99.0342 266° West 356 410 17,800  Level Houston Center
Sun 01:53:42 PM 25.8306 -99.1444 266° West 356 410 17,800  Level Houston Center
Sun 01:54:44 PM 25.8236 -99.2578 266° West 359 413 17,800 -629 Level Houston Center
Sun 01:55:46 PM 25.8314 -99.3694 274° West 366 421 16,500 -1,452 Descending Houston Center
Sun 01:56:48 PM 25.8481 -99.4817 279° West 372 428 14,800 -1,839 Descending Houston Center
Sun 01:57:50 PM 25.8656 -99.6142 278° West 370 426 12,700 -1,790 Descending Houston Center
Sun 01:58:52 PM 25.8778 -99.7111 278° West 354 407 11,100 -1,500 Descending Houston Center
Sun 01:59:54 PM 25.8894 -99.8000 278° West 331 381 9,600 -1,452 Descending Houston Center
Sun 02:00:56 PM 25.8986 -99.8844 277° West 310 357 8,100 -1,355 Descending Houston Center
Sun 02:01:58 PM 25.9083 -99.9647 278° West 290 334 6,800 -1,056 Descending Houston Center
Sun 02:03:01 PM 25.9211 -100.0519 279° West 279 321 5,900 -857 Descending Houston Center

Login

Don't have an account? Register now (free) for customized features, flight alerts, and more!